PUA274 SAZM-SULS
Flight info
| Callsign | PUA274 |
|---|---|
| Flight time | 0h 44m |
| Altitude | 29000 |
| Route | ROPIS1G ROPIS UM792 DARKA |
| Aircraft | A320/M-SDE3FGHIJ4RWY/LB1 |
Departure
| Time | 2026-04-26 19:19 |
|---|---|
| Airport | Ástor Piazzola International Airport (SAZM) |
Arrival
| Time | 2026-04-26 20:03 |
|---|---|
| Airport | Capitan Corbeta CA Curbelo International Airport (SULS) |
| Time | Latitude | Longitude | Altitude | Speed | Heading |
|---|---|---|---|---|---|
| 2026-04-26 19:19 | -37.71584 | -57.73520 | 12624 ft | 270 kts | 358° |
| 2026-04-26 19:19 | -37.69694 | -57.73382 | 13278 ft | 273 kts | 358° |
| 2026-04-26 19:19 | -37.67786 | -57.73245 | 13917 ft | 276 kts | 358° |
| 2026-04-26 19:19 | -37.65861 | -57.73108 | 14538 ft | 279 kts | 358° |
| 2026-04-26 19:20 | -37.63889 | -57.72969 | 14947 ft | 291 kts | 358° |
| 2026-04-26 19:20 | -37.62497 | -57.72873 | 15130 ft | 302 kts | 359° |
| 2026-04-26 19:20 | -37.59612 | -57.72670 | 15467 ft | 324 kts | 359° |
| 2026-04-26 19:20 | -37.57304 | -57.72505 | 15693 ft | 341 kts | 359° |
| 2026-04-26 19:21 | -37.54892 | -57.72333 | 15895 ft | 357 kts | 359° |
| 2026-04-26 19:21 | -37.52362 | -57.72148 | 16276 ft | 366 kts | 359° |
| 2026-04-26 19:21 | -37.49814 | -57.71955 | 16819 ft | 369 kts | 360° |
| 2026-04-26 19:21 | -37.47247 | -57.71763 | 17390 ft | 372 kts | 359° |
| 2026-04-26 19:22 | -37.44644 | -57.71571 | 17950 ft | 374 kts | 360° |
| 2026-04-26 19:22 | -37.42035 | -57.71371 | 18505 ft | 378 kts | 1° |
| 2026-04-26 19:22 | -37.39425 | -57.70779 | 19051 ft | 385 kts | 13° |
| 2026-04-26 19:22 | -37.36909 | -57.69525 | 19582 ft | 393 kts | 25° |
| 2026-04-26 19:23 | -37.34603 | -57.67636 | 20108 ft | 400 kts | 37° |
| 2026-04-26 19:23 | -37.32548 | -57.65243 | 20596 ft | 405 kts | 41° |
| 2026-04-26 19:23 | -37.30504 | -57.62777 | 21050 ft | 409 kts | 41° |
| 2026-04-26 19:23 | -37.28443 | -57.60298 | 21517 ft | 413 kts | 41° |
| 2026-04-26 19:24 | -37.26358 | -57.57794 | 21967 ft | 416 kts | 41° |
| 2026-04-26 19:24 | -37.24259 | -57.55275 | 22414 ft | 420 kts | 41° |
| 2026-04-26 19:24 | -37.19998 | -57.50173 | 23248 ft | 427 kts | 40° |
| 2026-04-26 19:25 | -37.17839 | -57.47596 | 23657 ft | 430 kts | 40° |
| 2026-04-26 19:25 | -37.16402 | -57.45881 | 23917 ft | 433 kts | 40° |
| 2026-04-26 19:25 | -37.13500 | -57.42413 | 24428 ft | 437 kts | 39° |
| 2026-04-26 19:25 | -37.11289 | -57.39775 | 24809 ft | 440 kts | 39° |
| 2026-04-26 19:26 | -37.09062 | -57.37125 | 25171 ft | 443 kts | 38° |
| 2026-04-26 19:26 | -37.06813 | -57.34452 | 25519 ft | 447 kts | 38° |
| 2026-04-26 19:26 | -37.04552 | -57.31761 | 25861 ft | 450 kts | 38° |
| 2026-04-26 19:26 | -37.02276 | -57.29056 | 26205 ft | 453 kts | 37° |
| 2026-04-26 19:27 | -36.99984 | -57.26334 | 26536 ft | 456 kts | 37° |
| 2026-04-26 19:27 | -36.97681 | -57.23602 | 27000 ft | 454 kts | 37° |
| 2026-04-26 19:27 | -36.95401 | -57.20891 | 27553 ft | 451 kts | 36° |
| 2026-04-26 19:27 | -36.93119 | -57.18183 | 27912 ft | 453 kts | 36° |
| 2026-04-26 19:28 | -36.90826 | -57.15466 | 28224 ft | 456 kts | 36° |
| 2026-04-26 19:28 | -36.88502 | -57.12724 | 28393 ft | 463 kts | 35° |
| 2026-04-26 19:28 | -36.86141 | -57.09947 | 28514 ft | 470 kts | 35° |
| 2026-04-26 19:28 | -36.83760 | -57.07143 | 28666 ft | 470 kts | 35° |
| 2026-04-26 19:29 | -36.79022 | -57.01551 | 28711 ft | 468 kts | 34° |
| 2026-04-26 19:29 | -36.74114 | -56.96300 | 28709 ft | 453 kts | 23° |
| 2026-04-26 19:30 | -36.71412 | -56.94455 | 28721 ft | 437 kts | 13° |
| 2026-04-26 19:30 | -36.68610 | -56.93045 | 28722 ft | 434 kts | 11° |
| 2026-04-26 19:30 | -36.63965 | -56.90741 | 28729 ft | 432 kts | 11° |
| 2026-04-26 19:31 | -36.57467 | -56.87499 | 28737 ft | 433 kts | 11° |
| 2026-04-26 19:31 | -36.51878 | -56.84706 | 28741 ft | 433 kts | 10° |
| 2026-04-26 19:32 | -36.46291 | -56.81932 | 28753 ft | 431 kts | 9° |
| 2026-04-26 19:32 | -36.40719 | -56.79164 | 28761 ft | 431 kts | 9° |
| 2026-04-26 19:33 | -36.35151 | -56.76401 | 28763 ft | 431 kts | 9° |
| 2026-04-26 19:33 | -36.29631 | -56.73664 | 28767 ft | 418 kts | 9° |
| 2026-04-26 19:34 | -36.24244 | -56.70992 | 28779 ft | 416 kts | 8° |
| 2026-04-26 19:34 | -36.18861 | -56.68352 | 28780 ft | 416 kts | 8° |
| 2026-04-26 19:35 | -36.13535 | -56.65737 | 28781 ft | 407 kts | 8° |
| 2026-04-26 19:35 | -36.10963 | -56.64448 | 28786 ft | 391 kts | 7° |
| 2026-04-26 19:35 | -36.08470 | -56.63200 | 28789 ft | 386 kts | 7° |
| 2026-04-26 19:36 | -36.05123 | -56.61564 | 28795 ft | 387 kts | 7° |
| 2026-04-26 19:36 | -35.98456 | -56.58327 | 28796 ft | 387 kts | 6° |
| 2026-04-26 19:37 | -35.93439 | -56.55879 | 28794 ft | 388 kts | 6° |
| 2026-04-26 19:37 | -35.88422 | -56.53425 | 28804 ft | 388 kts | 6° |
| 2026-04-26 19:38 | -35.83407 | -56.50968 | 28803 ft | 387 kts | 5° |
| 2026-04-26 19:38 | -35.78393 | -56.48529 | 28804 ft | 388 kts | 5° |
| 2026-04-26 19:39 | -35.73381 | -56.46085 | 28804 ft | 387 kts | 5° |
| 2026-04-26 19:39 | -35.68366 | -56.43640 | 28804 ft | 388 kts | 5° |
| 2026-04-26 19:40 | -35.64201 | -56.41614 | 28809 ft | 387 kts | 5° |
| 2026-04-26 19:40 | -35.59187 | -56.39181 | 28813 ft | 387 kts | 5° |
| 2026-04-26 19:41 | -35.56676 | -56.37966 | 28554 ft | 386 kts | 5° |
| 2026-04-26 19:41 | -35.53385 | -56.36367 | 28224 ft | 383 kts | 5° |
| 2026-04-26 19:41 | -35.50921 | -56.35171 | 27973 ft | 382 kts | 5° |
| 2026-04-26 19:41 | -35.50080 | -56.34762 | 27890 ft | 381 kts | 5° |
| 2026-04-26 19:42 | -35.46790 | -56.33171 | 27556 ft | 380 kts | 5° |
| 2026-04-26 19:42 | -35.44323 | -56.31981 | 27305 ft | 381 kts | 5° |
| 2026-04-26 19:42 | -35.41856 | -56.30794 | 27058 ft | 384 kts | 5° |
| 2026-04-26 19:42 | -35.39372 | -56.29605 | 26803 ft | 381 kts | 6° |
| 2026-04-26 19:43 | -35.36956 | -56.28435 | 26559 ft | 375 kts | 5° |
| 2026-04-26 19:43 | -35.34534 | -56.27234 | 26306 ft | 380 kts | 9° |
| 2026-04-26 19:43 | -35.32203 | -56.25533 | 26050 ft | 402 kts | 23° |
| 2026-04-26 19:43 | -35.30138 | -56.23082 | 25801 ft | 426 kts | 40° |
| 2026-04-26 19:44 | -35.28540 | -56.19915 | 25527 ft | 455 kts | 57° |
| 2026-04-26 19:44 | -35.27404 | -56.16193 | 25001 ft | 471 kts | 63° |
| 2026-04-26 19:44 | -35.26343 | -56.12399 | 24476 ft | 472 kts | 63° |
| 2026-04-26 19:44 | -35.25287 | -56.08593 | 23942 ft | 473 kts | 64° |
| 2026-04-26 19:45 | -35.24230 | -56.04784 | 23399 ft | 474 kts | 64° |
| 2026-04-26 19:45 | -35.23162 | -56.00973 | 22840 ft | 474 kts | 63° |
| 2026-04-26 19:45 | -35.22087 | -55.97164 | 22333 ft | 473 kts | 63° |
| 2026-04-26 19:45 | -35.21018 | -55.93387 | 22025 ft | 466 kts | 63° |
| 2026-04-26 19:46 | -35.19962 | -55.89667 | 21398 ft | 459 kts | 63° |
| 2026-04-26 19:46 | -35.18918 | -55.86002 | 20602 ft | 453 kts | 63° |
| 2026-04-26 19:46 | -35.17911 | -55.82460 | 20396 ft | 429 kts | 63° |
| 2026-04-26 19:46 | -35.16984 | -55.79142 | 20174 ft | 396 kts | 62° |
| 2026-04-26 19:47 | -35.16121 | -55.76057 | 19907 ft | 376 kts | 62° |
| 2026-04-26 19:47 | -35.15556 | -55.74076 | 19610 ft | 370 kts | 61° |
| 2026-04-26 19:47 | -35.14406 | -55.70127 | 18895 ft | 367 kts | 61° |
| 2026-04-26 19:47 | -35.13555 | -55.67211 | 18396 ft | 361 kts | 61° |
| 2026-04-26 19:48 | -35.12732 | -55.64372 | 17875 ft | 357 kts | 61° |
| 2026-04-26 19:48 | -35.11905 | -55.61526 | 17350 ft | 353 kts | 61° |
| 2026-04-26 19:48 | -35.11097 | -55.58715 | 16823 ft | 352 kts | 61° |
| 2026-04-26 19:48 | -35.10323 | -55.56050 | 16383 ft | 350 kts | 60° |
| 2026-04-26 19:49 | -35.09519 | -55.53268 | 15952 ft | 344 kts | 62° |
| 2026-04-26 19:49 | -35.08733 | -55.50541 | 15459 ft | 338 kts | 62° |
| 2026-04-26 19:49 | -35.07952 | -55.47841 | 15017 ft | 336 kts | 60° |
| 2026-04-26 19:49 | -35.07168 | -55.45140 | 14638 ft | 338 kts | 61° |
| 2026-04-26 19:50 | -35.06390 | -55.42456 | 14338 ft | 334 kts | 62° |
| 2026-04-26 19:50 | -35.05620 | -55.39794 | 14016 ft | 331 kts | 61° |
| 2026-04-26 19:50 | -35.04856 | -55.37141 | 13736 ft | 330 kts | 62° |
| 2026-04-26 19:50 | -35.04113 | -55.34546 | 13594 ft | 315 kts | 62° |
| 2026-04-26 19:51 | -35.03395 | -55.32059 | 13328 ft | 307 kts | 62° |
| 2026-04-26 19:51 | -35.02687 | -55.29635 | 13098 ft | 300 kts | 60° |
| 2026-04-26 19:51 | -35.01978 | -55.27242 | 12783 ft | 300 kts | 60° |
| 2026-04-26 19:51 | -35.01277 | -55.24865 | 12493 ft | 296 kts | 60° |
| 2026-04-26 19:52 | -35.00589 | -55.22508 | 12192 ft | 295 kts | 61° |
| 2026-04-26 19:52 | -34.99891 | -55.20147 | 11937 ft | 294 kts | 61° |
| 2026-04-26 19:52 | -34.99222 | -55.17849 | 11667 ft | 290 kts | 60° |
| 2026-04-26 19:52 | -34.98562 | -55.15540 | 11335 ft | 287 kts | 62° |
| 2026-04-26 19:53 | -34.97903 | -55.13272 | 10978 ft | 282 kts | 60° |
| 2026-04-26 19:53 | -34.97241 | -55.11022 | 10584 ft | 279 kts | 62° |
| 2026-04-26 19:53 | -34.96609 | -55.08849 | 10398 ft | 264 kts | 62° |
| 2026-04-26 19:53 | -34.96025 | -55.06820 | 10269 ft | 244 kts | 62° |
| 2026-04-26 19:54 | -34.95479 | -55.04927 | 10013 ft | 232 kts | 61° |
| 2026-04-26 19:54 | -34.94940 | -55.03090 | 9612 ft | 227 kts | 62° |
| 2026-04-26 19:54 | -34.94423 | -55.01323 | 9401 ft | 216 kts | 62° |
| 2026-04-26 19:54 | -34.93917 | -54.99618 | 9049 ft | 213 kts | 62° |
| 2026-04-26 19:55 | -34.93412 | -54.97926 | 8678 ft | 212 kts | 62° |
| 2026-04-26 19:55 | -34.92914 | -54.96247 | 8305 ft | 208 kts | 63° |
| 2026-04-26 19:55 | -34.92424 | -54.94588 | 7837 ft | 208 kts | 63° |
| 2026-04-26 19:55 | -34.91938 | -54.92941 | 7392 ft | 206 kts | 63° |
| 2026-04-26 19:56 | -34.91457 | -54.91314 | 6994 ft | 201 kts | 63° |
| 2026-04-26 19:56 | -34.90931 | -54.89779 | 6627 ft | 191 kts | 50° |
| 2026-04-26 19:56 | -34.90097 | -54.88552 | 6118 ft | 185 kts | 30° |
| 2026-04-26 19:56 | -34.89045 | -54.87725 | 5667 ft | 176 kts | 13° |
| 2026-04-26 19:57 | -34.87899 | -54.87312 | 5195 ft | 169 kts | 358° |
| 2026-04-26 19:57 | -34.86767 | -54.87298 | 4758 ft | 161 kts | 343° |
| 2026-04-26 19:57 | -34.85719 | -54.87616 | 4570 ft | 146 kts | 334° |
| 2026-04-26 19:57 | -34.84789 | -54.87975 | 4370 ft | 140 kts | 333° |
| 2026-04-26 19:58 | -34.83855 | -54.88337 | 4085 ft | 139 kts | 333° |
| 2026-04-26 19:58 | -34.82937 | -54.88694 | 3786 ft | 141 kts | 334° |
| 2026-04-26 19:58 | -34.82020 | -54.89092 | 3618 ft | 139 kts | 322° |
| 2026-04-26 19:58 | -34.81306 | -54.89849 | 3394 ft | 138 kts | 300° |
| 2026-04-26 19:59 | -34.80932 | -54.90919 | 3171 ft | 139 kts | 278° |
| 2026-04-26 19:59 | -34.80971 | -54.92089 | 3032 ft | 141 kts | 257° |
| 2026-04-26 19:59 | -34.81275 | -54.93209 | 2830 ft | 138 kts | 255° |
| 2026-04-26 19:59 | -34.81572 | -54.94325 | 2641 ft | 138 kts | 255° |
| 2026-04-26 20:00 | -34.81866 | -54.95436 | 2456 ft | 138 kts | 255° |
| 2026-04-26 20:00 | -34.82158 | -54.96542 | 2251 ft | 137 kts | 256° |
| 2026-04-26 20:00 | -34.82449 | -54.97644 | 2056 ft | 136 kts | 256° |
| 2026-04-26 20:00 | -34.82737 | -54.98747 | 1857 ft | 136 kts | 256° |
| 2026-04-26 20:01 | -34.83024 | -54.99841 | 1673 ft | 135 kts | 256° |
| 2026-04-26 20:01 | -34.83308 | -55.00931 | 1473 ft | 135 kts | 256° |
| 2026-04-26 20:01 | -34.83593 | -55.02022 | 1294 ft | 136 kts | 256° |
| 2026-04-26 20:01 | -34.83886 | -55.03117 | 1094 ft | 137 kts | 257° |
| 2026-04-26 20:02 | -34.84156 | -55.04206 | 950 ft | 133 kts | 259° |
| 2026-04-26 20:02 | -34.84416 | -55.05294 | 716 ft | 135 kts | 255° |
| 2026-04-26 20:02 | -34.84716 | -55.06387 | 537 ft | 135 kts | 256° |
| 2026-04-26 20:02 | -34.84894 | -55.07100 | 442 ft | 133 kts | 255° |
| 2026-04-26 20:03 | -34.85291 | -55.08593 | 214 ft | 137 kts | 255° |
| 2026-04-26 20:03 | -34.85585 | -55.09680 | 104 ft | 121 kts | 254° |
| 2026-04-26 20:03 | -34.85747 | -55.10302 | 99 ft | 49 kts | 249° |
| 2026-04-26 20:03 | -34.85828 | -55.10610 | 100 ft | 24 kts | 253° |
| 2026-04-26 20:04 | -34.85860 | -55.10737 | 101 ft | 10 kts | 188° |
| 2026-04-26 20:04 | -34.85846 | -55.10659 | 100 ft | 18 kts | 64° |
| 2026-04-26 20:04 | -34.85798 | -55.10487 | 100 ft | 23 kts | 71° |
| 2026-04-26 20:04 | -34.85747 | -55.10293 | 99 ft | 25 kts | 71° |
| 2026-04-26 20:05 | -34.85691 | -55.10086 | 101 ft | 26 kts | 72° |
| 2026-04-26 20:05 | -34.85654 | -55.09928 | 102 ft | 11 kts | 102° |
| 2026-04-26 20:05 | -34.85693 | -55.09902 | 101 ft | 7 kts | 163° |
| 2026-04-26 20:05 | -34.85751 | -55.09880 | 101 ft | 10 kts | 161° |
| 2026-04-26 20:06 | -34.85825 | -55.09850 | 101 ft | 9 kts | 162° |
| 2026-04-26 20:06 | -34.85846 | -55.09842 | 101 ft | 2 kts | 162° |
| 2026-04-26 20:06 | -34.85866 | -55.09834 | 101 ft | 4 kts | 165° |
| 2026-04-26 20:06 | -34.85893 | -55.09851 | 101 ft | 5 kts | 241° |
| 2026-04-26 20:07 | -34.85907 | -55.09904 | 101 ft | 8 kts | 253° |
| 2026-04-26 20:07 | -34.85926 | -55.09975 | 101 ft | 8 kts | 250° |
| 2026-04-26 20:07 | -34.85963 | -55.09997 | 101 ft | 7 kts | 166° |
| 2026-04-26 20:07 | -34.85986 | -55.09988 | 101 ft | 0 kts | 161° |
| 2026-04-26 20:08 | -34.85988 | -55.09988 | 101 ft | 0 kts | 161° |